createdAt,value
2017-01-25T00:00:27.181Z,1025.74
2017-01-25T00:01:36.135Z,1025.72
2017-01-25T00:02:45.098Z,1025.75
2017-01-25T00:03:54.056Z,1025.74
2017-01-25T00:05:03.006Z,1025.76
2017-01-25T00:06:11.965Z,1025.77
2017-01-25T00:07:20.925Z,1025.75
2017-01-25T00:08:30.362Z,1025.82
2017-01-25T00:09:42.368Z,1025.81
2017-01-25T00:10:52.484Z,1025.84
2017-01-25T00:12:02.958Z,1025.82
2017-01-25T00:13:13.053Z,1025.83
2017-01-25T00:14:22.476Z,1025.84
2017-01-25T00:15:35.758Z,1025.87
2017-01-25T00:16:46.417Z,1025.89
2017-01-25T00:17:57.724Z,1025.86
2017-01-25T00:19:10.249Z,1025.88
2017-01-25T00:20:22.322Z,1025.87
2017-01-25T00:21:34.631Z,1025.9
2017-01-25T00:22:45.984Z,1025.9
2017-01-25T00:23:57.379Z,1025.94
2017-01-25T00:25:09.736Z,1025.9
2017-01-25T00:26:20.724Z,1025.85
2017-01-25T00:27:32.016Z,1025.84
2017-01-25T00:28:43.352Z,1025.83
2017-01-25T00:29:54.003Z,1025.84
2017-01-25T00:31:03.279Z,1025.84
2017-01-25T00:32:12.232Z,1025.83
2017-01-25T00:33:23.409Z,1025.87
2017-01-25T00:34:33.173Z,1025.85
2017-01-25T00:35:44.751Z,1025.84
2017-01-25T00:36:54.771Z,1025.83
2017-01-25T00:38:05.176Z,1025.86
2017-01-25T00:39:16.802Z,1025.82
2017-01-25T00:40:28.467Z,1025.85
2017-01-25T00:41:38.734Z,1025.85
2017-01-25T00:42:47.682Z,1025.84
2017-01-25T00:43:56.636Z,1025.79
2017-01-25T00:45:05.597Z,1025.79
2017-01-25T00:46:14.575Z,1025.75
2017-01-25T00:47:23.530Z,1025.74
2017-01-25T00:48:32.573Z,1025.68
2017-01-25T00:49:41.541Z,1025.69
2017-01-25T00:50:50.523Z,1025.69
2017-01-25T00:51:59.478Z,1025.74
2017-01-25T00:53:08.432Z,1025.73
2017-01-25T00:54:17.387Z,1025.75
2017-01-25T00:55:26.339Z,1025.76
2017-01-25T00:56:35.393Z,1025.77
2017-01-25T00:57:44.382Z,1025.73
2017-01-25T00:58:53.339Z,1025.77
2017-01-25T01:00:02.291Z,1025.78
2017-01-25T01:01:11.251Z,1025.82
2017-01-25T01:02:20.200Z,1025.82
2017-01-25T01:03:29.153Z,1025.86
2017-01-25T01:04:38.108Z,1025.87
2017-01-25T01:05:47.063Z,1025.89
2017-01-25T01:06:56.105Z,1025.91
2017-01-25T01:08:05.062Z,1025.96
2017-01-25T01:09:14.018Z,1025.96
2017-01-25T01:10:22.993Z,1025.98
2017-01-25T01:11:31.946Z,1025.96
2017-01-25T01:12:40.907Z,1025.9
2017-01-25T01:13:49.870Z,1025.92
2017-01-25T01:14:58.914Z,1025.91
2017-01-25T01:16:07.870Z,1025.9
2017-01-25T01:17:16.825Z,1025.89
2017-01-25T01:18:25.778Z,1025.89
2017-01-25T01:19:34.729Z,1025.89
2017-01-25T01:20:43.683Z,1025.93
2017-01-25T01:21:52.642Z,1025.89
2017-01-25T01:23:01.599Z,1025.89
2017-01-25T01:24:10.557Z,1025.86
2017-01-25T01:25:19.513Z,1025.86
2017-01-25T01:26:28.467Z,1025.85
2017-01-25T01:27:37.424Z,1025.84
2017-01-25T01:28:46.379Z,1025.84
2017-01-25T01:29:55.338Z,1025.83
2017-01-25T01:31:04.299Z,1025.8
2017-01-25T01:32:13.257Z,1025.85
2017-01-25T01:33:22.212Z,1025.82
2017-01-25T01:34:31.169Z,1025.79
2017-01-25T01:35:40.122Z,1025.82
2017-01-25T01:36:49.077Z,1025.81
2017-01-25T01:37:58.029Z,1025.77
2017-01-25T01:39:06.992Z,1025.8
2017-01-25T01:40:15.942Z,1025.82
2017-01-25T01:41:24.895Z,1025.85
2017-01-25T01:42:33.849Z,1025.83
2017-01-25T01:43:42.804Z,1025.85
2017-01-25T01:44:51.759Z,1025.88
2017-01-25T01:46:00.743Z,1025.87
2017-01-25T01:47:09.701Z,1025.81
2017-01-25T01:48:18.656Z,1025.76
2017-01-25T01:49:27.615Z,1025.72
2017-01-25T01:50:36.582Z,1025.77
2017-01-25T01:51:45.536Z,1025.79
2017-01-25T01:52:54.494Z,1025.83
2017-01-25T01:54:03.444Z,1025.82
2017-01-25T01:55:12.402Z,1025.82
2017-01-25T01:56:21.443Z,1025.81
2017-01-25T01:57:30.394Z,1025.84
2017-01-25T01:58:39.347Z,1025.87
2017-01-25T01:59:48.300Z,1025.85
2017-01-25T02:00:57.255Z,1025.87
2017-01-25T02:02:06.210Z,1025.85
2017-01-25T02:03:15.165Z,1025.88
2017-01-25T02:04:24.118Z,1025.87
2017-01-25T02:05:33.158Z,1025.88
2017-01-25T02:06:42.120Z,1025.84
2017-01-25T02:07:51.074Z,1025.87
2017-01-25T02:09:00.030Z,1025.86
2017-01-25T02:10:08.988Z,1025.84
2017-01-25T02:11:17.945Z,1025.81
2017-01-25T02:12:26.899Z,1025.8
2017-01-25T02:13:35.943Z,1025.83
2017-01-25T02:14:44.896Z,1025.83
2017-01-25T02:15:53.847Z,1025.83
2017-01-25T02:17:02.891Z,1025.75
2017-01-25T02:18:11.849Z,1025.79
2017-01-25T02:19:20.804Z,1025.82
2017-01-25T02:20:29.764Z,1025.81
2017-01-25T02:21:38.718Z,1025.81
2017-01-25T02:22:47.676Z,1025.81
2017-01-25T02:23:56.627Z,1025.78
2017-01-25T02:25:05.580Z,1025.84
2017-01-25T02:26:14.531Z,1025.86
2017-01-25T02:27:23.483Z,1025.76
2017-01-25T02:28:32.434Z,1025.71
2017-01-25T02:29:41.387Z,1025.69
2017-01-25T02:30:50.340Z,1025.71
2017-01-25T02:31:59.298Z,1025.73
2017-01-25T02:33:08.257Z,1025.73
2017-01-25T02:34:17.339Z,1025.75
2017-01-25T02:35:26.293Z,1025.76
2017-01-25T02:36:35.335Z,1025.76
2017-01-25T02:37:44.291Z,1025.73
2017-01-25T02:38:53.247Z,1025.72
2017-01-25T02:40:02.206Z,1025.71
2017-01-25T02:41:11.161Z,1025.67
2017-01-25T02:42:20.117Z,1025.64
2017-01-25T02:43:29.155Z,1025.65
2017-01-25T02:44:38.121Z,1025.68
2017-01-25T02:45:47.078Z,1025.73
2017-01-25T02:46:56.040Z,1025.7
2017-01-25T02:48:04.995Z,1025.68
2017-01-25T02:49:13.947Z,1025.71
2017-01-25T02:50:22.898Z,1025.69
2017-01-25T02:51:31.854Z,1025.77
2017-01-25T02:52:40.807Z,1025.78
2017-01-25T02:53:49.760Z,1025.77
2017-01-25T02:54:58.719Z,1025.77
2017-01-25T02:56:08.082Z,1025.76
2017-01-25T02:57:17.040Z,1025.75
2017-01-25T02:58:25.995Z,1025.72
2017-01-25T02:59:34.960Z,1025.69
2017-01-25T03:00:43.913Z,1025.68
2017-01-25T03:01:52.866Z,1025.7
2017-01-25T03:03:01.817Z,1025.75
2017-01-25T03:04:10.805Z,1025.82
2017-01-25T03:05:19.760Z,1025.77
2017-01-25T03:06:28.712Z,1025.78
2017-01-25T03:07:37.691Z,1025.81
2017-01-25T03:08:46.675Z,1025.81
2017-01-25T03:09:55.632Z,1025.85
2017-01-25T03:11:04.584Z,1025.84
2017-01-25T03:12:13.542Z,1025.9
2017-01-25T03:13:22.497Z,1025.89
2017-01-25T03:14:31.450Z,1025.84
2017-01-25T03:15:40.407Z,1025.84
2017-01-25T03:16:49.360Z,1025.91
2017-01-25T03:17:58.434Z,1025.89
2017-01-25T03:19:07.395Z,1025.89
2017-01-25T03:20:16.348Z,1025.94
2017-01-25T03:21:25.299Z,1025.89
2017-01-25T03:22:34.253Z,1025.88
2017-01-25T03:23:43.203Z,1025.89
2017-01-25T03:24:52.246Z,1025.9
2017-01-25T03:26:01.200Z,1025.93
2017-01-25T03:27:10.158Z,1025.92
2017-01-25T03:28:19.113Z,1025.93
2017-01-25T03:29:28.093Z,1025.96
2017-01-25T03:30:37.046Z,1025.96
2017-01-25T03:31:46.002Z,1025.98
2017-01-25T03:32:54.955Z,1025.96
2017-01-25T03:34:03.950Z,1025.98
2017-01-25T03:35:13.316Z,1026.04
2017-01-25T03:36:22.269Z,1026.1
2017-01-25T03:37:31.225Z,1026.11
2017-01-25T03:38:40.264Z,1026.09
2017-01-25T03:39:49.216Z,1026.1
2017-01-25T03:40:58.172Z,1026.12
2017-01-25T03:42:07.126Z,1026.1
2017-01-25T03:43:16.076Z,1026.08
2017-01-25T03:44:25.033Z,1026.12
2017-01-25T03:45:34.106Z,1026.14
2017-01-25T03:46:43.066Z,1026.14
2017-01-25T03:47:52.020Z,1026.15
2017-01-25T03:49:00.995Z,1026.12
2017-01-25T03:50:09.949Z,1026.1
2017-01-25T03:51:18.920Z,1026.09
2017-01-25T03:52:27.872Z,1026.12
2017-01-25T03:53:36.821Z,1026.12
2017-01-25T03:54:45.779Z,1026.11
2017-01-25T03:55:54.728Z,1026.12
2017-01-25T03:57:03.678Z,1026.11
2017-01-25T03:58:12.632Z,1026.16
2017-01-25T03:59:21.588Z,1026.17
2017-01-25T04:00:30.547Z,1026.16
2017-01-25T04:01:39.502Z,1026.11
2017-01-25T04:02:48.468Z,1026.13
2017-01-25T04:03:57.426Z,1026.18
2017-01-25T04:05:06.395Z,1026.15
2017-01-25T04:06:15.352Z,1026.18
2017-01-25T04:07:24.349Z,1026.15
2017-01-25T04:08:33.300Z,1026.16
2017-01-25T04:09:42.693Z,1026.16
2017-01-25T04:10:51.654Z,1026.15
2017-01-25T04:12:01.104Z,1026.17
2017-01-25T04:13:10.164Z,1026.18
2017-01-25T04:14:19.116Z,1026.17
2017-01-25T04:15:28.071Z,1026.2
2017-01-25T04:16:37.028Z,1026.23
2017-01-25T04:17:45.983Z,1026.22
2017-01-25T04:18:54.935Z,1026.24
2017-01-25T04:20:03.888Z,1026.21
2017-01-25T04:21:12.847Z,1026.19
2017-01-25T04:22:21.799Z,1026.31
2017-01-25T04:23:30.753Z,1026.31
2017-01-25T04:24:39.713Z,1026.29
2017-01-25T04:25:48.664Z,1026.28
2017-01-25T04:26:57.618Z,1026.23
2017-01-25T04:28:06.585Z,1026.21
2017-01-25T04:29:15.546Z,1026.2
2017-01-25T04:30:24.498Z,1026.28
2017-01-25T04:31:33.454Z,1026.29
2017-01-25T04:32:42.410Z,1026.31
2017-01-25T04:33:51.357Z,1026.32
2017-01-25T04:35:00.306Z,1026.35
2017-01-25T04:36:09.261Z,1026.32
2017-01-25T04:37:18.217Z,1026.3
2017-01-25T04:38:27.178Z,1026.29
2017-01-25T04:39:36.127Z,1026.24
2017-01-25T04:40:45.077Z,1026.21
2017-01-25T04:41:54.030Z,1026.21
2017-01-25T04:43:02.988Z,1026.18
2017-01-25T04:44:12.006Z,1026.14
2017-01-25T04:45:20.965Z,1026.2
2017-01-25T04:46:29.925Z,1026.14
2017-01-25T04:47:38.871Z,1026.2
2017-01-25T04:48:47.822Z,1026.24
2017-01-25T04:49:56.777Z,1026.24
2017-01-25T04:51:05.732Z,1026.25
2017-01-25T04:52:14.721Z,1026.26
2017-01-25T04:53:23.673Z,1026.3
2017-01-25T04:54:32.712Z,1026.3
2017-01-25T04:55:41.749Z,1026.35
2017-01-25T04:56:50.713Z,1026.37
2017-01-25T04:57:59.666Z,1026.38
2017-01-25T04:59:08.711Z,1026.39
2017-01-25T05:00:18.673Z,1026.38
2017-01-25T05:01:27.633Z,1026.4
2017-01-25T05:02:36.588Z,1026.4
2017-01-25T05:03:45.546Z,1026.39
2017-01-25T05:04:54.502Z,1026.44
2017-01-25T05:06:03.501Z,1026.42
2017-01-25T05:07:12.457Z,1026.43
2017-01-25T05:08:21.411Z,1026.42
2017-01-25T05:09:30.363Z,1026.39
2017-01-25T05:10:39.402Z,1026.45
2017-01-25T05:11:48.357Z,1026.42
2017-01-25T05:12:57.360Z,1026.41
2017-01-25T05:14:06.422Z,1026.41
2017-01-25T05:15:15.378Z,1026.4
2017-01-25T05:16:24.335Z,1026.41
2017-01-25T05:17:33.289Z,1026.43
2017-01-25T05:18:42.243Z,1026.44
2017-01-25T05:19:51.193Z,1026.41
2017-01-25T05:21:00.148Z,1026.45
2017-01-25T05:22:09.103Z,1026.43
2017-01-25T05:23:18.062Z,1026.42
2017-01-25T05:24:27.026Z,1026.42
2017-01-25T05:25:35.980Z,1026.42
2017-01-25T05:26:44.933Z,1026.36
2017-01-25T05:27:53.890Z,1026.36
2017-01-25T05:29:02.849Z,1026.37
2017-01-25T05:30:11.807Z,1026.36
2017-01-25T05:31:20.760Z,1026.37
2017-01-25T05:32:29.718Z,1026.34
2017-01-25T05:33:38.670Z,1026.32
2017-01-25T05:34:47.623Z,1026.41
2017-01-25T05:35:56.582Z,1026.34
2017-01-25T05:37:05.803Z,1026.31
2017-01-25T05:38:14.755Z,1026.29
2017-01-25T05:39:23.711Z,1026.28
2017-01-25T05:40:32.757Z,1026.31
2017-01-25T05:41:41.710Z,1026.33
2017-01-25T05:42:50.665Z,1026.35
2017-01-25T05:43:59.704Z,1026.34
2017-01-25T05:45:08.749Z,1026.36
2017-01-25T05:46:17.703Z,1026.38
2017-01-25T05:47:26.745Z,1026.34
2017-01-25T05:48:35.694Z,1026.36
2017-01-25T05:49:44.647Z,1026.35
2017-01-25T05:50:53.598Z,1026.36
2017-01-25T05:52:02.556Z,1026.37
2017-01-25T05:53:11.629Z,1026.41
2017-01-25T05:54:20.672Z,1026.4
2017-01-25T05:55:29.715Z,1026.42
2017-01-25T05:56:38.679Z,1026.44
2017-01-25T05:57:47.634Z,1026.49
2017-01-25T05:58:56.593Z,1026.47
2017-01-25T06:00:05.552Z,1026.44
2017-01-25T06:01:14.509Z,1026.45
2017-01-25T06:02:23.464Z,1026.49
2017-01-25T06:03:32.427Z,1026.47
2017-01-25T06:04:41.383Z,1026.46
2017-01-25T06:05:50.337Z,1026.49
2017-01-25T06:06:59.285Z,1026.48
2017-01-25T06:08:08.236Z,1026.48
2017-01-25T06:09:17.195Z,1026.49
2017-01-25T06:10:26.154Z,1026.5
2017-01-25T06:11:35.107Z,1026.47
2017-01-25T06:12:44.098Z,1026.51
2017-01-25T06:13:53.079Z,1026.5
2017-01-25T06:15:02.042Z,1026.51
2017-01-25T06:16:11.006Z,1026.48
2017-01-25T06:17:19.960Z,1026.51
2017-01-25T06:18:28.917Z,1026.48
2017-01-25T06:19:37.873Z,1026.53
2017-01-25T06:20:46.824Z,1026.51
2017-01-25T06:21:55.775Z,1026.54
2017-01-25T06:23:04.816Z,1026.58
2017-01-25T06:24:13.769Z,1026.54
2017-01-25T06:25:22.727Z,1026.61
2017-01-25T06:26:31.682Z,1026.59
2017-01-25T06:27:40.721Z,1026.6
2017-01-25T06:28:49.670Z,1026.62
2017-01-25T06:29:58.628Z,1026.62
2017-01-25T06:31:07.582Z,1026.58
2017-01-25T06:32:16.539Z,1026.62
2017-01-25T06:33:25.493Z,1026.63
2017-01-25T06:34:34.445Z,1026.6
2017-01-25T06:35:43.394Z,1026.62
2017-01-25T06:36:52.362Z,1026.6
2017-01-25T06:38:01.316Z,1026.62
2017-01-25T06:39:10.276Z,1026.59
2017-01-25T06:40:19.228Z,1026.59
2017-01-25T06:41:28.181Z,1026.56
2017-01-25T06:42:37.136Z,1026.56
2017-01-25T06:43:46.093Z,1026.52
2017-01-25T06:44:55.052Z,1026.55
2017-01-25T06:46:04.004Z,1026.57
2017-01-25T06:47:12.957Z,1026.58
2017-01-25T06:48:21.910Z,1026.61
2017-01-25T06:49:30.863Z,1026.66
2017-01-25T06:50:39.841Z,1026.67
2017-01-25T06:51:48.885Z,1026.67
2017-01-25T06:52:57.833Z,1026.65
2017-01-25T06:54:06.786Z,1026.69
2017-01-25T06:55:15.739Z,1026.76
2017-01-25T06:56:24.689Z,1026.73
2017-01-25T06:57:33.639Z,1026.72
2017-01-25T06:58:42.594Z,1026.76
2017-01-25T06:59:51.557Z,1026.68
2017-01-25T07:01:00.515Z,1026.74
2017-01-25T07:02:09.480Z,1026.7
2017-01-25T07:03:18.433Z,1026.77
2017-01-25T07:04:27.383Z,1026.74
2017-01-25T07:05:36.339Z,1026.78
2017-01-25T07:06:45.295Z,1026.8
2017-01-25T07:07:54.297Z,1026.8
2017-01-25T07:09:03.253Z,1026.74
2017-01-25T07:10:12.204Z,1026.76
2017-01-25T07:11:21.156Z,1026.81
2017-01-25T07:12:30.192Z,1026.8
2017-01-25T07:13:39.145Z,1026.82
2017-01-25T07:14:48.096Z,1026.82
2017-01-25T07:15:57.049Z,1026.86
2017-01-25T07:17:06.002Z,1026.86
2017-01-25T07:18:14.954Z,1026.86
2017-01-25T07:19:23.906Z,1026.88
2017-01-25T07:20:32.861Z,1026.83
2017-01-25T07:21:41.811Z,1026.82
2017-01-25T07:22:50.761Z,1026.83
2017-01-25T07:23:59.799Z,1026.83
2017-01-25T07:25:08.762Z,1026.84
2017-01-25T07:26:17.725Z,1026.87
2017-01-25T07:27:26.681Z,1026.81
2017-01-25T07:28:35.642Z,1026.82
2017-01-25T07:29:44.600Z,1026.8
2017-01-25T07:30:53.558Z,1026.82
2017-01-25T07:32:02.509Z,1026.84
2017-01-25T07:33:11.462Z,1026.86
2017-01-25T07:34:20.413Z,1026.89
2017-01-25T07:35:29.363Z,1026.89
2017-01-25T07:36:38.318Z,1026.89
2017-01-25T07:37:47.271Z,1026.87
2017-01-25T07:38:56.229Z,1026.86
2017-01-25T07:40:05.177Z,1026.87
2017-01-25T07:41:14.138Z,1026.88
2017-01-25T07:42:23.090Z,1026.9
2017-01-25T07:43:32.050Z,1026.93
2017-01-25T07:44:41.009Z,1026.93
2017-01-25T07:45:49.963Z,1027.01
2017-01-25T07:46:58.918Z,1026.99
2017-01-25T07:48:07.871Z,1026.98
2017-01-25T07:49:16.824Z,1026.97
2017-01-25T07:50:25.774Z,1026.97
2017-01-25T07:51:34.728Z,1027
2017-01-25T07:52:43.679Z,1026.98
2017-01-25T07:53:52.636Z,1026.99
2017-01-25T07:55:01.596Z,1026.98
2017-01-25T07:56:10.550Z,1026.99
2017-01-25T07:57:19.506Z,1027.02
2017-01-25T07:58:28.460Z,1027
2017-01-25T07:59:37.430Z,1027.05
2017-01-25T08:00:46.382Z,1027.02
2017-01-25T08:01:55.335Z,1027.04
2017-01-25T08:03:04.287Z,1027
2017-01-25T08:04:13.240Z,1027.07
2017-01-25T08:05:22.192Z,1027.08
2017-01-25T08:06:31.143Z,1027.06
2017-01-25T08:07:40.094Z,1027.05
2017-01-25T08:08:49.047Z,1027.05
2017-01-25T08:09:57.997Z,1027.06
2017-01-25T08:11:06.952Z,1027.1
2017-01-25T08:12:15.905Z,1027.13
2017-01-25T08:13:24.857Z,1027.1
2017-01-25T08:14:33.811Z,1027.11
2017-01-25T08:15:42.767Z,1027.13
2017-01-25T08:16:51.806Z,1027.12
2017-01-25T08:18:00.756Z,1027.18
2017-01-25T08:19:09.713Z,1027.16
2017-01-25T08:20:18.673Z,1027.13
2017-01-25T08:21:27.624Z,1027.18
2017-01-25T08:22:36.604Z,1027.18
2017-01-25T08:23:45.561Z,1027.18
2017-01-25T08:24:54.513Z,1027.22
2017-01-25T08:26:03.466Z,1027.24
2017-01-25T08:27:12.420Z,1027.23
2017-01-25T08:28:21.376Z,1027.27
2017-01-25T08:29:30.334Z,1027.26
2017-01-25T08:30:39.288Z,1027.3
2017-01-25T08:31:48.248Z,1027.28
2017-01-25T08:32:57.202Z,1027.29
2017-01-25T08:34:06.162Z,1027.29
2017-01-25T08:35:15.132Z,1027.3
2017-01-25T08:36:24.114Z,1027.28
2017-01-25T08:37:33.079Z,1027.29
2017-01-25T08:38:42.207Z,1027.31
2017-01-25T08:39:51.169Z,1027.31
2017-01-25T08:41:00.130Z,1027.31
2017-01-25T08:42:09.087Z,1027.32
2017-01-25T08:43:18.040Z,1027.3
2017-01-25T08:44:26.999Z,1027.31
2017-01-25T08:45:35.955Z,1027.32
2017-01-25T08:46:44.915Z,1027.33
2017-01-25T08:47:53.867Z,1027.31
2017-01-25T08:49:02.816Z,1027.28
2017-01-25T08:50:11.785Z,1027.29
2017-01-25T08:51:21.063Z,1027.34
2017-01-25T08:52:30.022Z,1027.36
2017-01-25T08:53:38.977Z,1027.36
2017-01-25T08:54:47.932Z,1027.38
2017-01-25T08:55:56.889Z,1027.37
2017-01-25T08:57:06.159Z,1027.35
2017-01-25T08:58:15.349Z,1027.38
2017-01-25T08:59:24.394Z,1027.39
2017-01-25T09:00:33.415Z,1027.44
2017-01-25T09:01:42.374Z,1027.43
2017-01-25T09:02:51.346Z,1027.44
2017-01-25T09:04:00.302Z,1027.47
2017-01-25T09:05:09.291Z,1027.45
2017-01-25T09:06:18.252Z,1027.42
2017-01-25T09:07:27.259Z,1027.41
2017-01-25T09:08:36.317Z,1027.38
2017-01-25T09:09:45.360Z,1027.38
2017-01-25T09:10:54.315Z,1027.39
2017-01-25T09:12:03.384Z,1027.42
2017-01-25T09:13:12.342Z,1027.38
2017-01-25T09:14:21.295Z,1027.38
2017-01-25T09:15:30.250Z,1027.39
2017-01-25T09:16:39.290Z,1027.4
2017-01-25T09:17:48.246Z,1027.43
2017-01-25T09:18:57.206Z,1027.48
2017-01-25T09:20:06.935Z,1027.5
2017-01-25T09:21:19.144Z,1027.47
2017-01-25T09:22:29.894Z,1027.5
2017-01-25T09:23:40.625Z,1027.54
2017-01-25T09:24:50.433Z,1027.59
2017-01-25T09:26:01.790Z,1027.56
2017-01-25T09:27:12.736Z,1027.55
2017-01-25T09:28:23.528Z,1027.58
2017-01-25T09:29:33.778Z,1027.57
2017-01-25T09:30:44.625Z,1027.59
2017-01-25T09:31:56.203Z,1027.56
2017-01-25T09:33:06.913Z,1027.6
2017-01-25T09:34:17.919Z,1027.59
2017-01-25T09:35:28.455Z,1027.66
2017-01-25T09:36:39.508Z,1027.64
2017-01-25T09:37:50.570Z,1027.68
2017-01-25T09:39:00.768Z,1027.69
2017-01-25T09:40:11.878Z,1027.63
2017-01-25T09:41:22.446Z,1027.66
2017-01-25T09:42:33.084Z,1027.66
2017-01-25T09:43:43.859Z,1027.68
2017-01-25T09:44:53.778Z,1027.66
2017-01-25T09:46:03.974Z,1027.68
2017-01-25T09:47:14.051Z,1027.64
2017-01-25T09:48:24.117Z,1027.65
2017-01-25T09:49:34.861Z,1027.67
2017-01-25T09:50:45.486Z,1027.64
2017-01-25T09:51:56.725Z,1027.65
2017-01-25T09:53:07.731Z,1027.65
2017-01-25T09:54:18.833Z,1027.62
2017-01-25T09:55:29.597Z,1027.69
2017-01-25T09:56:39.843Z,1027.64
2017-01-25T09:57:50.495Z,1027.66
2017-01-25T09:59:00.890Z,1027.68
2017-01-25T10:00:11.126Z,1027.68
2017-01-25T10:01:22.171Z,1027.71
2017-01-25T10:02:33.299Z,1027.68
2017-01-25T10:03:43.704Z,1027.66
2017-01-25T10:04:53.988Z,1027.71
2017-01-25T10:06:03.158Z,1027.69
2017-01-25T10:07:13.457Z,1027.68
2017-01-25T10:08:24.010Z,1027.71
2017-01-25T10:09:33.594Z,1027.64
2017-01-25T10:10:43.127Z,1027.65
2017-01-25T10:11:53.002Z,1027.7
2017-01-25T10:13:03.440Z,1027.6
2017-01-25T10:14:13.410Z,1027.61
2017-01-25T10:15:23.594Z,1027.59
2017-01-25T10:16:33.364Z,1027.6
2017-01-25T10:17:42.322Z,1027.54
2017-01-25T10:18:51.278Z,1027.57
2017-01-25T10:20:00.870Z,1027.6
2017-01-25T10:21:09.833Z,1027.58
2017-01-25T10:22:18.872Z,1027.56
2017-01-25T10:23:27.825Z,1027.57
2017-01-25T10:24:36.783Z,1027.55
2017-01-25T10:25:45.737Z,1027.53
2017-01-25T10:26:54.696Z,1027.52
2017-01-25T10:28:03.659Z,1027.48
2017-01-25T10:29:12.620Z,1027.51
2017-01-25T10:30:21.664Z,1027.55
2017-01-25T10:31:30.619Z,1027.48
2017-01-25T10:32:39.575Z,1027.52
2017-01-25T10:33:48.533Z,1027.49
2017-01-25T10:34:57.489Z,1027.52
2017-01-25T10:36:06.440Z,1027.52
2017-01-25T10:37:15.391Z,1027.51
2017-01-25T10:38:24.430Z,1027.51
2017-01-25T10:39:33.386Z,1027.5
2017-01-25T10:40:42.364Z,1027.49
2017-01-25T10:41:51.318Z,1027.49
2017-01-25T10:43:00.692Z,1027.48
2017-01-25T10:44:09.653Z,1027.51
2017-01-25T10:45:18.698Z,1027.49
2017-01-25T10:46:27.918Z,1027.49
2017-01-25T10:47:36.951Z,1027.47
2017-01-25T10:48:47.364Z,1027.49
2017-01-25T10:49:57.047Z,1027.45
2017-01-25T10:51:07.240Z,1027.48
2017-01-25T10:52:17.254Z,1027.47
2017-01-25T10:53:26.534Z,1027.47
2017-01-25T10:54:36.224Z,1027.46
2017-01-25T10:55:46.003Z,1027.42
2017-01-25T10:56:55.641Z,1027.37
2017-01-25T10:58:04.816Z,1027.38
2017-01-25T10:59:14.736Z,1027.38
2017-01-25T11:00:25.036Z,1027.37
2017-01-25T11:01:34.004Z,1027.37
2017-01-25T11:02:42.989Z,1027.38
2017-01-25T11:03:51.948Z,1027.37
2017-01-25T11:05:00.902Z,1027.35
2017-01-25T11:06:10.316Z,1027.33
2017-01-25T11:07:19.291Z,1027.34
2017-01-25T11:08:28.254Z,1027.31
2017-01-25T11:09:37.209Z,1027.35
2017-01-25T11:10:46.161Z,1027.35
2017-01-25T11:11:55.113Z,1027.3
2017-01-25T11:13:04.069Z,1027.3
2017-01-25T11:14:13.026Z,1027.29
2017-01-25T11:15:22.073Z,1027.29
2017-01-25T11:16:31.022Z,1027.27
2017-01-25T11:17:39.976Z,1027.25
2017-01-25T11:18:48.932Z,1027.24
2017-01-25T11:19:57.889Z,1027.25
2017-01-25T11:21:07.663Z,1027.25
2017-01-25T11:22:17.363Z,1027.29
2017-01-25T11:23:26.317Z,1027.32
2017-01-25T11:24:35.966Z,1027.32
2017-01-25T11:25:45.478Z,1027.31
2017-01-25T11:26:54.746Z,1027.31
2017-01-25T11:28:05.242Z,1027.31
2017-01-25T11:29:15.324Z,1027.33
2017-01-25T11:30:28.919Z,1027.32
2017-01-25T11:31:38.723Z,1027.32
2017-01-25T11:32:48.125Z,1027.31
2017-01-25T11:33:57.078Z,1027.27
2017-01-25T11:35:06.615Z,1027.26
2017-01-25T11:36:15.743Z,1027.23
2017-01-25T11:37:24.841Z,1027.24
2017-01-25T11:38:33.932Z,1027.23
2017-01-25T11:39:43.635Z,1027.21
2017-01-25T11:40:52.693Z,1027.22
2017-01-25T11:42:01.647Z,1027.19
2017-01-25T11:43:11.651Z,1027.22
2017-01-25T11:44:21.676Z,1027.25
2017-01-25T11:45:31.431Z,1027.21
2017-01-25T11:46:41.259Z,1027.23
2017-01-25T11:47:50.211Z,1027.22
2017-01-25T11:48:59.172Z,1027.24
2017-01-25T11:50:08.128Z,1027.19
2017-01-25T11:51:18.199Z,1027.26
2017-01-25T11:52:28.359Z,1027.26
2017-01-25T11:53:37.882Z,1027.18
2017-01-25T11:54:48.406Z,1027.18
2017-01-25T11:55:57.393Z,1027.16
2017-01-25T11:57:06.347Z,1027.18
2017-01-25T11:58:15.321Z,1027.18
2017-01-25T11:59:24.278Z,1027.13
2017-01-25T12:00:33.230Z,1027.12
2017-01-25T12:01:42.183Z,1027.11
2017-01-25T12:02:51.142Z,1027.1
2017-01-25T12:04:00.095Z,1027.1
2017-01-25T12:05:09.055Z,1027.07
2017-01-25T12:06:18.014Z,1027.1
2017-01-25T12:07:26.967Z,1027.12
2017-01-25T12:08:35.921Z,1027.07
2017-01-25T12:09:44.878Z,1027.09
2017-01-25T12:10:53.833Z,1027.05
2017-01-25T12:12:02.788Z,1027.01
2017-01-25T12:13:11.743Z,1027.02
2017-01-25T12:14:20.694Z,1026.98
2017-01-25T12:15:29.653Z,1026.98
2017-01-25T12:16:38.606Z,1027.02
2017-01-25T12:17:47.567Z,1026.95
2017-01-25T12:18:56.521Z,1027.01
2017-01-25T12:20:05.504Z,1026.96
2017-01-25T12:21:14.461Z,1026.93
2017-01-25T12:22:23.411Z,1026.93
2017-01-25T12:23:32.360Z,1026.93
2017-01-25T12:24:41.321Z,1026.95
2017-01-25T12:25:50.275Z,1026.96
2017-01-25T12:26:59.233Z,1026.88
2017-01-25T12:28:08.200Z,1026.86
2017-01-25T12:29:17.151Z,1026.87
2017-01-25T12:30:26.104Z,1026.86
2017-01-25T12:31:35.061Z,1026.82
2017-01-25T12:32:44.013Z,1026.85
2017-01-25T12:33:52.967Z,1026.82
2017-01-25T12:35:01.928Z,1026.85
2017-01-25T12:36:10.895Z,1026.8
2017-01-25T12:37:19.857Z,1026.83
2017-01-25T12:38:28.824Z,1026.85
2017-01-25T12:39:37.779Z,1026.89
2017-01-25T12:40:46.750Z,1026.89
2017-01-25T12:41:55.702Z,1026.89
2017-01-25T12:43:04.662Z,1026.89
2017-01-25T12:44:13.620Z,1026.93
2017-01-25T12:45:22.575Z,1026.92
2017-01-25T12:46:31.532Z,1026.91
2017-01-25T12:47:40.488Z,1026.94
2017-01-25T12:48:49.451Z,1026.91
2017-01-25T12:49:58.409Z,1026.92
2017-01-25T12:51:07.376Z,1026.93
2017-01-25T12:52:16.334Z,1026.93
2017-01-25T12:53:25.293Z,1026.96
2017-01-25T12:54:34.342Z,1026.96
2017-01-25T12:55:43.295Z,1026.95
2017-01-25T12:56:52.251Z,1026.94
2017-01-25T12:58:01.212Z,1026.91
2017-01-25T12:59:10.170Z,1026.88
2017-01-25T13:00:19.125Z,1026.86
2017-01-25T13:01:28.842Z,1026.84
2017-01-25T13:02:39.382Z,1026.89
2017-01-25T13:03:49.370Z,1026.85
2017-01-25T13:04:58.764Z,1026.87
2017-01-25T13:06:09.141Z,1026.83
2017-01-25T13:07:18.805Z,1026.81
2017-01-25T13:08:27.758Z,1026.82
2017-01-25T13:09:36.987Z,1026.81
2017-01-25T13:10:46.655Z,1026.85
2017-01-25T13:11:56.499Z,1026.81
2017-01-25T13:13:05.817Z,1026.8
2017-01-25T13:14:15.125Z,1026.79
2017-01-25T13:15:24.086Z,1026.8
2017-01-25T13:16:33.143Z,1026.81
2017-01-25T13:17:42.899Z,1026.82
2017-01-25T13:18:51.987Z,1026.79
2017-01-25T13:20:00.939Z,1026.75
2017-01-25T13:21:09.962Z,1026.75
2017-01-25T13:22:18.920Z,1026.77
2017-01-25T13:23:27.932Z,1026.77
2017-01-25T13:24:36.888Z,1026.77
2017-01-25T13:25:46.093Z,1026.77
2017-01-25T13:26:55.052Z,1026.8
2017-01-25T13:28:04.182Z,1026.76
2017-01-25T13:29:13.143Z,1026.78
2017-01-25T13:30:22.355Z,1026.73
2017-01-25T13:31:31.315Z,1026.75
2017-01-25T13:32:40.278Z,1026.73
2017-01-25T13:33:49.838Z,1026.77
2017-01-25T13:34:58.796Z,1026.81
2017-01-25T13:36:07.750Z,1026.79
2017-01-25T13:37:16.704Z,1026.75
2017-01-25T13:38:25.655Z,1026.77
2017-01-25T13:39:34.935Z,1026.82
2017-01-25T13:40:44.186Z,1026.84
2017-01-25T13:41:53.142Z,1026.87
2017-01-25T13:43:02.105Z,1026.9
2017-01-25T13:44:11.059Z,1026.88
2017-01-25T13:45:20.055Z,1026.86
2017-01-25T13:46:29.093Z,1026.87
2017-01-25T13:47:38.718Z,1026.89
2017-01-25T13:48:47.702Z,1026.87
2017-01-25T13:49:56.662Z,1026.9
2017-01-25T13:51:05.618Z,1026.94
2017-01-25T13:52:14.574Z,1026.97
2017-01-25T13:53:23.556Z,1027.01
2017-01-25T13:54:32.967Z,1027.03
2017-01-25T13:55:41.920Z,1026.99
2017-01-25T13:56:50.879Z,1027.02
2017-01-25T13:58:00.159Z,1027.01
2017-01-25T13:59:09.117Z,1027.03